Time;durP1;ratioP1;P1;durP2;ratioP2;P2;SDS_P1;SDS_P2;PMS_P1;PMS_P2;Temp;Humidity;BMP_temperature;BMP_pressure;BME280_temperature;BME280_humidity;BME280_pressure;Samples;Min_cycle;Max_cycle;Signal;HPM_P1;HPM_P2
2022/01/02 00:02:31;;;;;;;2.28;2.05;;;14.50;63.40;;;13.20;66.95;101711.66;8358978;28;20464;-85
2022/01/02 00:06:54;;;;;;;2.47;2.28;;;14.50;63.50;;;13.11;66.72;101707.72;8346017;28;20120;-85
2022/01/02 00:11:22;;;;;;;3.10;1.77;;;14.40;63.10;;;13.05;66.80;101715.91;8346525;28;20124;-86
2022/01/02 00:15:44;;;;;;;2.00;1.80;;;14.40;63.20;;;13.06;66.78;101709.72;8370609;28;20120;-85
2022/01/02 00:20:12;;;;;;;1.88;1.60;;;14.40;63.50;;;12.83;66.68;101667.16;8341224;28;20469;-85
2022/01/02 00:24:35;;;;;;;1.92;1.75;;;14.40;63.70;;;13.03;66.71;101687.13;8340732;28;20120;-85
2022/01/02 00:28:57;;;;;;;2.92;2.38;;;14.30;63.40;;;12.96;66.77;101672.66;8341573;28;20053;-85
2022/01/02 00:33:20;;;;;;;4.40;2.70;;;14.30;63.50;;;12.95;66.71;101670.94;8371401;28;20032;-85
2022/01/02 00:37:41;;;;;;;2.85;2.55;;;14.30;63.60;;;12.90;66.87;101672.09;8367399;28;20120;-85
2022/01/02 00:42:10;;;;;;;3.70;2.35;;;14.20;63.70;;;12.88;66.61;101666.06;8363061;28;20480;-85
2022/01/02 00:46:38;;;;;;;2.33;1.98;;;14.20;63.60;;;12.82;66.49;101641.84;8366628;28;20123;-85
2022/01/02 00:51:05;;;;;;;4.43;2.28;;;14.00;63.30;;;12.64;66.87;101608.72;8374738;28;20047;-85
2022/01/02 00:55:32;;;;;;;2.60;2.03;;;14.10;63.20;;;12.70;66.66;101623.28;8383807;28;20465;-85
2022/01/02 01:00:04;;;;;;;3.33;2.88;;;14.10;63.30;;;12.61;66.73;101607.09;8375292;28;20111;-85
2022/01/02 01:04:37;;;;;;;5.85;2.40;;;14.00;63.10;;;12.61;66.75;101606.25;8363728;28;20127;-84
2022/01/02 01:09:05;;;;;;;3.42;2.53;;;14.00;63.40;;;12.55;66.75;101598.66;8376476;28;20043;-85
2022/01/02 01:13:27;;;;;;;3.58;2.53;;;13.90;63.30;;;12.58;66.75;101593.28;8381899;28;20499;-85
2022/01/02 01:17:52;;;;;;;3.40;2.65;;;13.90;63.40;;;12.49;66.70;101584.09;8378236;28;20124;-85
2022/01/02 01:22:14;;;;;;;3.40;2.80;;;13.80;63.10;;;12.43;66.54;101586.19;8360746;28;20112;-85
2022/01/02 01:26:37;;;;;;;5.80;2.97;;;13.70;63.30;;;12.39;66.57;101595.97;8386490;28;20366;-85
2022/01/02 01:30:59;;;;;;;4.65;3.28;;;13.80;64.10;;;12.27;66.92;101576.47;8367316;28;20516;-85
2022/01/02 01:35:22;;;;;;;5.60;2.80;;;13.70;63.20;;;12.02;66.87;101544.53;8378695;28;20553;-85
2022/01/02 01:39:44;;;;;;;2.65;2.42;;;13.60;63.10;;;12.17;66.64;101562.09;8383070;28;20122;-85
2022/01/02 01:48:31;;;;;;;3.30;3.00;;;13.30;63.40;;;12.09;66.48;101556.41;8372033;28;20131;-85
2022/01/02 01:52:54;;;;;;;3.95;3.28;;;13.40;63.50;;;12.05;66.58;101547.00;8368849;28;20124;-85
2022/01/02 01:57:18;;;;;;;3.88;2.72;;;13.40;63.60;;;11.88;66.76;101511.16;8382121;28;20135;-85
2022/01/02 02:01:39;;;;;;;4.38;3.40;;;13.20;63.50;;;11.90;66.64;101510.16;8387896;28;20123;-85
2022/01/02 02:06:01;;;;;;;4.03;3.28;;;13.30;63.70;;;11.86;67.09;101492.91;8369263;28;20131;-85
2022/01/02 02:10:38;;;;;;;3.45;3.15;;;13.20;63.80;;;11.69;66.99;101456.19;8369878;28;20401;-85
2022/01/02 02:15:04;;;;;;;3.38;2.85;;;13.20;64.00;;;11.73;67.05;101448.13;8388583;28;20140;-85
2022/01/02 02:19:26;;;;;;;3.35;3.05;;;13.10;64.00;;;11.75;67.08;101442.84;8374159;28;20457;-84
2022/01/02 02:23:48;;;;;;;3.28;2.70;;;13.10;64.00;;;11.74;67.18;101462.06;8364082;28;20631;-85
2022/01/02 02:28:15;;;;;;;3.85;2.97;;;13.10;64.20;;;11.63;66.65;101432.97;8358598;28;20144;-85
2022/01/02 02:32:38;;;;;;;3.03;2.70;;;13.10;64.30;;;11.65;67.19;101433.75;8355559;28;20123;-85
2022/01/02 02:37:01;;;;;;;3.65;3.35;;;13.10;64.20;;;11.72;67.11;101450.84;8337761;28;20128;-85
2022/01/02 02:41:24;;;;;;;4.07;2.78;;;12.90;64.00;;;11.67;67.08;101439.75;8361158;28;20561;-85
2022/01/02 02:50:27;;;;;;;4.78;2.35;;;13.00;64.30;;;11.66;66.89;101443.28;8333729;28;20516;-85
2022/01/02 02:54:51;;;;;;;3.05;2.75;;;13.00;64.30;;;11.62;66.95;101444.34;8341944;28;20416;-85
2022/01/02 02:59:13;;;;;;;4.43;2.80;;;13.00;64.30;;;11.48;67.00;101390.94;8338335;28;20127;-85
2022/01/02 03:03:36;;;;;;;4.93;2.83;;;12.90;64.00;;;11.40;66.97;101374.78;8340657;28;20113;-85
2022/01/02 03:07:58;;;;;;;3.17;2.53;;;12.90;64.00;;;11.38;66.68;101363.53;8343465;28;20127;-85
2022/01/02 03:12:20;;;;;;;3.00;2.70;;;13.20;64.30;;;11.49;66.77;101366.47;8357471;28;20043;-85
2022/01/02 03:16:45;;;;;;;3.58;2.60;;;12.60;63.90;;;11.48;66.87;101362.16;8349205;28;20127;-85
2022/01/02 03:25:33;;;;;;;4.22;3.35;;;12.80;64.10;;;11.46;67.10;101350.94;8346268;23;20128;-85
2022/01/02 03:29:55;;;;;;;4.90;2.92;;;12.80;64.20;;;11.45;67.28;101370.16;8257042;28;20040;-84
2022/01/02 03:34:52;;;;;;;4.78;2.92;;;12.80;64.20;;;11.29;67.29;101346.53;8283513;28;20116;-85
2022/01/02 03:39:24;;;;;;;2.55;2.35;;;12.80;64.10;;;11.44;67.03;101341.47;8269297;28;20113;-84
2022/01/02 03:43:46;;;;;;;2.75;2.50;;;12.70;64.10;;;11.41;67.28;101334.59;8277172;28;20112;-84
2022/01/02 03:48:08;;;;;;;2.55;2.35;;;12.70;63.90;;;11.36;67.00;101320.91;8260810;28;20125;-84
2022/01/02 03:52:30;;;;;;;2.92;2.53;;;12.80;64.10;;;11.17;66.89;101284.34;8264162;28;20513;-84
2022/01/02 03:56:54;;;;;;;2.72;2.22;;;12.60;63.90;;;11.14;66.77;101276.66;8259161;28;20117;-84
2022/01/02 04:01:16;;;;;;;3.45;2.10;;;12.60;64.00;;;11.39;67.21;101312.91;8263826;28;20120;-85
2022/01/02 04:05:38;;;;;;;3.25;2.22;;;12.60;64.00;;;11.36;67.21;101313.06;8281299;28;20573;-85
2022/01/02 04:10:05;;;;;;;4.45;2.58;;;12.70;64.70;;;11.18;66.85;101278.22;8266736;28;20125;-85
2022/01/02 04:14:27;;;;;;;2.78;2.17;;;12.70;63.90;;;11.31;67.09;101294.13;8265705;28;20112;-84
2022/01/02 04:18:50;;;;;;;3.78;2.55;;;12.70;64.00;;;11.29;67.36;101281.16;8268036;28;20032;-84
2022/01/02 04:23:12;;;;;;;2.80;2.50;;;12.60;63.90;;;11.28;66.96;101291.69;8278573;28;20481;-84
2022/01/02 04:27:34;;;;;;;2.35;2.15;;;12.60;64.10;;;11.17;67.13;101267.84;8267695;28;20189;-84
2022/01/02 04:31:56;;;;;;;2.13;1.92;;;12.60;64.20;;;11.27;67.24;101288.22;8268121;28;20498;-84
2022/01/02 04:36:18;;;;;;;2.15;1.80;;;12.60;64.20;;;11.24;66.83;101282.31;8275854;28;20034;-84
2022/01/02 04:40:41;;;;;;;2.90;2.60;;;12.60;64.10;;;11.10;67.44;101256.84;8275021;28;20109;-84
2022/01/02 04:45:05;;;;;;;2.25;2.13;;;12.60;63.90;;;11.23;66.72;101272.75;8278418;28;20589;-84
2022/01/02 04:49:28;;;;;;;2.60;2.30;;;12.60;64.00;;;11.15;67.14;101252.25;8281319;28;20509;-84
2022/01/02 04:53:50;;;;;;;2.40;2.20;;;12.60;64.10;;;11.04;66.96;101276.28;8282914;28;20040;-84
2022/01/02 04:58:13;;;;;;;2.28;1.85;;;12.60;64.20;;;11.14;66.97;101299.34;8282234;28;20121;-84
2022/01/02 05:02:35;;;;;;;3.03;2.42;;;12.50;64.20;;;11.20;66.91;101294.66;8278218;28;20132;-84
2022/01/02 05:06:57;;;;;;;2.40;1.88;;;12.60;64.40;;;11.15;66.79;101277.50;8274001;28;20137;-84
2022/01/02 05:11:19;;;;;;;2.25;2.00;;;12.50;64.30;;;11.18;66.77;101291.31;8278660;28;20402;-84
2022/01/02 05:15:41;;;;;;;2.17;1.98;;;12.60;64.40;;;11.12;67.08;101273.28;8272544;28;20113;-84
2022/01/02 05:20:05;;;;;;;2.13;1.92;;;12.60;64.30;;;11.18;67.00;101282.59;8277726;28;20109;-84
2022/01/02 05:24:29;;;;;;;1.67;1.58;;;12.60;64.00;;;11.06;67.12;101258.75;8267592;28;20124;-84
2022/01/02 05:28:51;;;;;;;2.50;2.05;;;12.60;63.80;;;11.13;67.02;101264.53;8265333;28;20124;-84
2022/01/02 05:33:14;;;;;;;1.88;1.77;;;12.60;63.60;;;11.11;67.07;101258.53;8266899;28;20056;-84
2022/01/02 05:37:35;;;;;;;2.47;1.85;;;12.50;63.50;;;10.96;66.81;101226.13;8277754;28;20121;-84
2022/01/02 05:41:57;;;;;;;2.42;1.70;;;12.50;63.30;;;11.00;66.61;101222.47;8279258;28;20144;-84
2022/01/02 05:46:20;;;;;;;2.00;1.80;;;12.40;63.00;;;10.92;66.70;101206.31;8280057;28;20113;-84
2022/01/02 05:50:42;;;;;;;2.22;1.85;;;12.30;62.80;;;10.87;66.59;101204.84;8299756;28;20117;-84
2022/01/02 05:55:05;;;;;;;1.90;1.67;;;12.20;63.10;;;10.79;66.62;101210.44;8277445;28;20133;-84
2022/01/02 05:59:27;;;;;;;1.65;1.55;;;12.20;63.10;;;10.65;66.94;101197.19;8285202;28;20112;-85
2022/01/02 06:03:49;;;;;;;1.73;1.63;;;12.10;63.30;;;10.63;66.99;101197.25;8284428;28;20116;-84
2022/01/02 06:08:11;;;;;;;2.15;1.80;;;12.10;63.40;;;10.61;66.56;101183.44;8256626;28;20130;-84
2022/01/02 06:12:33;;;;;;;1.58;1.48;;;11.90;63.10;;;10.41;66.64;101147.84;8284323;28;20570;-84
2022/01/02 06:16:55;;;;;;;2.40;1.98;;;12.00;63.10;;;10.46;66.79;101178.97;8259252;28;20116;-84
2022/01/02 06:21:16;;;;;;;2.20;1.77;;;11.80;63.20;;;10.43;66.91;101200.84;8280398;28;21186;-84
2022/01/02 06:25:39;;;;;;;1.95;1.85;;;11.80;63.50;;;10.35;66.60;101174.25;8283649;28;20125;-85
2022/01/02 06:30:01;;;;;;;1.45;1.35;;;11.70;63.40;;;10.16;66.65;101143.75;8292007;28;20052;-84
2022/01/02 06:34:24;;;;;;;1.60;1.50;;;11.70;63.20;;;10.17;66.85;101152.41;8284298;28;20550;-84
2022/01/02 06:38:47;;;;;;;1.65;1.55;;;11.60;63.40;;;10.16;66.76;101162.00;8273959;28;20116;-84
2022/01/02 06:43:09;;;;;;;1.35;1.25;;;11.60;63.60;;;10.07;66.86;101159.84;8283517;28;20180;-84
2022/01/02 06:47:30;;;;;;;1.77;1.67;;;11.50;63.60;;;10.08;66.33;101148.47;8264974;28;20042;-84
2022/01/02 06:51:52;;;;;;;2.38;1.70;;;11.30;63.60;;;9.91;66.98;101127.50;8276874;28;20038;-84
2022/01/02 06:56:14;;;;;;;1.73;1.58;;;11.20;63.50;;;9.81;67.10;101118.44;8270969;28;20125;-84
2022/01/02 07:00:36;;;;;;;1.77;1.40;;;11.30;63.50;;;9.84;66.48;101144.38;8290605;28;20120;-84
2022/01/02 07:05:00;;;;;;;1.63;1.52;;;11.30;63.70;;;9.79;67.13;101143.75;8283264;28;20121;-85
2022/01/02 07:09:23;;;;;;;1.55;1.45;;;11.30;64.00;;;9.89;67.03;101152.84;8256519;28;20124;-84
2022/01/02 07:13:45;;;;;;;1.65;1.55;;;11.30;64.40;;;9.85;67.10;101143.47;8296241;28;20116;-84
2022/01/02 07:18:06;;;;;;;1.88;1.60;;;11.20;64.70;;;9.86;66.88;101138.19;8284365;28;20040;-84
2022/01/02 07:22:28;;;;;;;2.10;1.65;;;11.30;65.30;;;9.98;67.25;101137.59;8268524;28;20702;-85
2022/01/02 07:26:50;;;;;;;4.63;1.63;;;11.30;65.90;;;9.97;67.17;101101.16;8296367;28;20124;-84
2022/01/02 07:31:14;;;;;;;1.90;1.80;;;11.40;66.30;;;10.15;67.63;101118.56;8289486;28;20566;-84
2022/01/02 07:35:36;;;;;;;3.25;1.70;;;11.40;66.50;;;10.18;68.12;101110.59;8295684;28;20550;-85
2022/01/02 07:39:57;;;;;;;2.08;1.45;;;11.50;66.50;;;10.23;67.62;101088.63;8281290;28;20121;-84
2022/01/02 07:44:19;;;;;;;3.85;1.65;;;11.60;66.60;;;10.35;67.40;101096.75;8291905;28;20546;-84
2022/01/02 07:48:41;;;;;;;1.63;1.52;;;11.60;66.50;;;10.35;67.86;101107.22;8276051;28;20125;-84
2022/01/02 07:53:03;;;;;;;3.35;1.77;;;11.70;66.40;;;10.48;67.65;101125.75;8257443;28;20052;-85
2022/01/02 07:57:25;;;;;;;1.33;1.23;;;11.80;66.40;;;10.45;67.75;101117.19;8277913;28;20116;-84
2022/01/02 08:01:46;;;;;;;1.88;1.77;;;11.90;66.50;;;10.55;67.58;101127.13;8281897;28;20116;-84
2022/01/02 08:06:08;;;;;;;3.00;1.52;;;12.00;66.50;;;10.62;68.13;101120.69;8262957;28;20041;-86
2022/01/02 08:10:30;;;;;;;1.70;1.60;;;12.00;66.50;;;10.61;67.94;101095.50;8276136;28;20488;-85
2022/01/02 08:14:51;;;;;;;1.92;1.60;;;12.00;66.50;;;10.71;67.57;101095.88;8265934;28;20109;-82
2022/01/02 08:19:13;;;;;;;1.58;1.40;;;12.10;66.60;;;10.68;67.74;101089.97;8280302;28;20132;-85
2022/01/02 08:23:35;;;;;;;1.85;1.75;;;12.20;66.60;;;10.83;67.93;101117.94;8276979;28;20124;-85
2022/01/02 08:27:57;;;;;;;2.80;1.75;;;12.00;66.30;;;10.67;68.06;101073.47;8280384;28;20121;-82
2022/01/02 08:32:19;;;;;;;4.22;1.80;;;12.30;66.50;;;10.88;67.81;101096.78;8279784;28;20410;-83
2022/01/02 08:36:40;;;;;;;2.08;1.42;;;12.30;66.40;;;10.74;67.89;101068.75;8289639;28;20117;-85
2022/01/02 08:41:03;;;;;;;1.60;1.48;;;12.40;66.40;;;10.97;68.30;101097.19;8262962;28;20575;-84
2022/01/02 08:45:25;;;;;;;2.38;1.75;;;12.50;66.40;;;11.00;68.32;101091.78;8276434;28;20124;-83
2022/01/02 08:49:46;;;;;;;3.63;1.50;;;12.50;66.50;;;11.13;67.63;101099.03;8276787;28;20116;-82
2022/01/02 08:54:08;;;;;;;1.60;1.50;;;12.60;66.50;;;11.10;67.92;101081.72;8289377;28;20120;-82
2022/01/02 08:58:30;;;;;;;4.30;2.13;;;12.60;66.40;;;11.22;68.10;101093.31;8291576;28;20120;-83
2022/01/02 09:02:52;;;;;;;1.85;1.65;;;12.70;66.40;;;11.22;68.12;101069.78;8279997;28;20121;-86
2022/01/02 09:07:13;;;;;;;2.35;1.70;;;12.70;66.30;;;11.29;67.99;101077.22;8275375;28;20120;-82
2022/01/02 09:11:35;;;;;;;1.70;1.30;;;12.70;66.20;;;11.36;67.65;101071.66;8266781;28;20062;-82
2022/01/02 09:15:57;;;;;;;1.90;1.70;;;12.80;66.30;;;11.26;67.90;101039.91;8293520;28;20481;-82
2022/01/02 09:20:20;;;;;;;1.70;1.60;;;12.80;66.30;;;11.31;68.04;101035.28;8262445;28;20120;-82
2022/01/02 09:24:42;;;;;;;1.25;1.15;;;12.90;66.30;;;11.46;68.01;101042.31;8280141;28;20448;-84
2022/01/02 09:29:04;;;;;;;2.47;1.60;;;12.80;66.30;;;11.48;67.63;101053.56;8279714;28;20133;-82
2022/01/02 09:33:26;;;;;;;1.92;1.83;;;13.00;66.50;;;11.56;68.22;101050.53;8265434;28;20117;-83
2022/01/02 09:37:47;;;;;;;3.78;2.17;;;13.00;66.50;;;11.57;68.27;101027.84;8296793;28;20117;-81
2022/01/02 09:42:12;;;;;;;1.30;1.20;;;13.10;66.60;;;11.67;67.88;101042.94;8300122;28;20129;-82
2022/01/02 09:46:34;;;;;;;1.65;1.55;;;13.10;66.60;;;11.72;68.24;101037.47;8296611;28;20125;-83
2022/01/02 09:50:57;;;;;;;2.45;1.92;;;13.20;66.60;;;11.73;67.85;101023.44;8297027;28;20124;-82
2022/01/02 09:55:19;;;;;;;1.90;1.50;;;13.20;66.80;;;11.76;67.99;101028.50;8291676;28;20041;-82
2022/01/02 09:59:40;;;;;;;1.63;1.50;;;13.20;66.70;;;11.80;68.27;101019.56;8299364;28;20113;-82
2022/01/02 10:04:02;;;;;;;1.67;1.48;;;13.30;66.80;;;11.86;67.98;101014.03;8285073;28;20393;-83
2022/01/02 10:08:31;;;;;;;1.38;1.27;;;13.20;66.80;;;11.84;68.35;100999.31;8289297;28;20041;-83
2022/01/02 10:13:01;;;;;;;1.92;1.13;;;13.40;67.10;;;11.85;68.04;101009.66;8269412;28;20243;-82
2022/01/02 10:17:22;;;;;;;2.22;1.33;;;13.40;67.30;;;11.94;68.17;100990.03;8256003;28;20040;-82
2022/01/02 10:22:03;;;;;;;2.28;2.00;;;13.40;67.10;;;11.95;68.28;100969.00;8276624;28;20048;-82
2022/01/02 10:26:25;;;;;;;2.28;1.48;;;13.40;67.30;;;12.06;68.29;100957.91;8291357;28;20042;-82
2022/01/02 10:30:53;;;;;;;2.38;1.65;;;13.50;67.30;;;12.06;68.13;100949.22;8267606;28;20041;-82
2022/01/02 10:35:21;;;;;;;1.27;1.17;;;13.50;67.40;;;11.97;68.21;100923.59;8281655;28;20124;-82
2022/01/02 10:39:43;;;;;;;2.65;1.58;;;13.60;67.40;;;12.20;68.17;100948.41;8282068;28;20116;-83
2022/01/02 10:44:33;;;;;;;1.67;1.50;;;13.50;67.20;;;12.16;68.38;100918.97;8273975;28;20116;-82
2022/01/02 10:48:54;;;;;;;1.42;1.30;;;13.70;67.50;;;12.29;68.02;100917.31;8270677;28;20129;-83
2022/01/02 10:53:17;;;;;;;1.45;1.33;;;13.70;67.20;;;12.24;68.02;100898.41;8259122;28;20050;-82
2022/01/02 10:57:42;;;;;;;1.88;1.50;;;13.70;67.30;;;12.19;68.13;100879.50;8257267;28;20045;-82
2022/01/02 11:02:04;;;;;;;3.60;1.50;;;13.80;67.40;;;12.37;68.32;100891.50;8267335;28;20534;-82
2022/01/02 11:06:34;;;;;;;1.33;1.17;;;13.70;67.20;;;12.38;67.99;100880.09;8262342;28;20041;-82
2022/01/02 11:10:56;;;;;;;1.80;1.05;;;13.90;67.40;;;12.36;68.01;100844.44;8266168;28;20042;-82
2022/01/02 11:15:25;;;;;;;1.95;1.30;;;13.80;67.20;;;12.37;68.14;100875.81;8268428;28;20043;-82
2022/01/02 11:19:46;;;;;;;1.58;1.30;;;13.90;67.40;;;12.47;68.23;100883.09;8275278;28;20044;-82
2022/01/02 11:24:20;;;;;;;3.58;2.33;;;13.90;67.40;;;12.44;68.27;100851.84;8281545;28;20043;-82
2022/01/02 11:28:50;;;;;;;2.13;1.27;;;13.90;67.50;;;12.51;68.27;100847.94;8256420;28;20038;-82
2022/01/02 11:33:15;;;;;;;3.17;1.75;;;13.90;67.50;;;12.54;68.36;100805.81;8288147;28;20037;-82
2022/01/02 11:37:53;;;;;;;3.33;1.75;;;13.80;67.60;;;12.53;68.29;100802.38;8276567;28;20522;-82
2022/01/02 11:42:38;;;;;;;1.40;1.30;;;14.00;67.90;;;12.55;68.25;100805.72;8255391;28;20044;-87
2022/01/02 11:46:59;;;;;;;2.22;1.90;;;14.00;68.00;;;12.48;68.45;100761.69;8264908;28;20038;-82
2022/01/02 11:51:50;;;;;;;5.97;2.20;;;14.00;67.80;;;12.58;68.41;100784.59;8245245;28;20044;-83
2022/01/02 11:56:32;;;;;;;4.95;2.40;;;14.00;68.00;;;12.53;68.27;100764.84;8280953;28;20038;-83
2022/01/02 12:00:54;;;;;;;2.95;2.65;;;14.00;68.10;;;12.65;68.25;100756.22;8254789;28;20045;-83
2022/01/02 12:05:15;;;;;;;3.70;2.70;;;14.00;67.90;;;12.59;68.25;100746.97;8276686;28;20042;-83
2022/01/02 12:09:38;;;;;;;2.17;1.98;;;14.10;68.00;;;12.68;68.34;100739.47;8286182;28;20045;-83
2022/01/02 12:14:19;;;;;;;2.17;1.95;;;14.10;68.10;;;12.66;68.56;100742.16;8265051;28;20038;-85
2022/01/02 12:18:56;;;;;;;2.33;1.52;;;14.10;68.30;;;12.60;68.40;100739.94;8248916;28;20437;-83
2022/01/02 12:23:33;;;;;;;2.22;1.50;;;14.00;68.30;;;12.69;68.41;100741.13;8283487;28;20037;-88
2022/01/02 12:27:58;;;;;;;2.17;1.52;;;14.10;69.10;;;12.67;68.37;100740.41;8283006;28;20052;-83
2022/01/02 12:32:24;;;;;;;1.42;1.27;;;14.10;68.30;;;12.66;68.28;100717.75;8279077;28;20441;-83
2022/01/02 12:36:50;;;;;;;4.23;1.63;;;14.20;68.50;;;12.66;68.36;100702.88;8254830;28;20516;-83
2022/01/02 12:41:17;;;;;;;;;;;14.10;68.20;;;12.64;68.57;100707.38;8283577;28;20048;-83
2022/01/02 12:45:42;;;;;;;1.30;1.17;;;14.10;68.10;;;12.68;68.27;100697.53;8255871;28;19923;-84
2022/01/02 12:50:04;;;;;;;3.77;1.43;;;14.10;68.00;;;12.65;68.44;100677.63;8263320;28;20046;-83
2022/01/02 12:54:36;;;;;;;2.13;1.90;;;14.10;68.20;;;12.62;68.58;100657.69;8283354;28;20042;-84
2022/01/02 12:59:21;;;;;;;2.50;1.65;;;14.00;68.10;;;12.60;68.41;100667.44;8189471;28;20054;-84
2022/01/02 13:03:46;;;;;;;1.97;1.60;;;14.10;68.60;;;12.67;68.50;100649.53;8188950;28;20415;-84
2022/01/02 13:08:08;;;;;;;3.17;1.77;;;14.10;68.40;;;12.71;68.58;100650.19;8221178;28;20294;-84
2022/01/02 13:12:32;;;;;;;2.75;1.90;;;14.00;68.40;;;12.70;68.52;100640.66;8207887;28;20053;-84
2022/01/02 13:16:57;;;;;;;2.22;1.65;;;14.00;68.60;;;12.68;68.50;100640.72;8214247;28;20051;-84
2022/01/02 13:21:19;;;;;;;2.60;1.80;;;14.10;68.50;;;12.69;68.68;100626.72;8198500;28;20507;-84
2022/01/02 13:25:45;;;;;;;2.78;2.03;;;14.00;68.40;;;12.63;68.46;100608.75;8200173;28;20058;-84
2022/01/02 13:30:07;;;;;;;2.80;2.15;;;14.00;68.50;;;12.67;68.46;100601.56;8196297;28;20050;-84
2022/01/02 13:34:30;;;;;;;2.72;2.28;;;14.10;68.50;;;12.64;68.52;100594.72;8222874;28;20720;-84
2022/01/02 13:38:57;;;;;;;2.25;1.83;;;14.00;68.40;;;12.54;68.59;100563.06;8211116;28;20034;-84
2022/01/02 13:43:29;;;;;;;2.45;1.45;;;14.00;68.50;;;12.57;68.46;100569.88;8219919;28;20044;-84
2022/01/02 13:47:51;;;;;;;2.33;2.13;;;13.90;68.50;;;12.69;68.40;100586.53;8196282;28;20038;-84
2022/01/02 13:52:16;;;;;;;3.58;2.30;;;14.00;68.50;;;12.49;68.47;100530.25;8207416;28;20043;-84
2022/01/02 13:56:56;;;;;;;3.95;2.38;;;14.00;68.50;;;12.68;68.62;100593.56;8223253;28;20553;-84
2022/01/02 14:01:20;;;;;;;3.40;2.85;;;14.00;68.60;;;12.67;68.61;100573.56;8208849;28;20039;-84
2022/01/02 14:05:46;;;;;;;4.75;3.10;;;14.00;68.40;;;12.71;68.66;100537.50;8225026;28;20045;-84
2022/01/02 14:10:09;;;;;;;4.82;2.63;;;14.00;68.50;;;12.58;68.48;100483.34;8208699;28;20088;-84
2022/01/02 14:14:48;;;;;;;5.15;2.90;;;14.00;68.30;;;12.67;68.28;100502.00;8194386;28;20039;-84
2022/01/02 14:19:10;;;;;;;4.68;3.50;;;14.00;68.50;;;12.69;68.46;100492.22;8205313;28;20069;-84
2022/01/02 14:23:32;;;;;;;5.68;3.30;;;14.00;68.40;;;12.67;68.41;100483.66;8220587;28;20042;-84
2022/01/02 14:27:54;;;;;;;3.47;2.47;;;14.00;68.50;;;12.48;68.52;100448.22;8208623;28;20043;-85
2022/01/02 14:32:16;;;;;;;4.38;2.25;;;14.00;68.40;;;12.69;68.69;100492.22;8203473;28;20047;-85
2022/01/02 14:36:38;;;;;;;2.45;1.83;;;14.00;68.50;;;12.65;68.54;100489.00;8194774;28;20051;-85
2022/01/02 14:41:00;;;;;;;4.68;3.08;;;14.00;68.60;;;12.62;68.38;100510.16;8210110;28;20123;-84
2022/01/02 14:45:23;;;;;;;3.53;2.35;;;14.00;68.50;;;12.60;68.73;100488.47;8221103;28;20041;-84
2022/01/02 14:49:45;;;;;;;2.38;1.73;;;14.00;68.50;;;12.59;68.49;100521.69;8209450;28;20066;-83
2022/01/02 14:54:07;;;;;;;3.25;1.90;;;14.00;68.50;;;12.66;68.59;100524.72;8233241;28;20794;-83
2022/01/02 14:58:30;;;;;;;2.67;1.63;;;14.00;68.60;;;12.66;68.56;100497.69;8195525;28;20030;-83
2022/01/02 15:02:52;;;;;;;1.88;1.70;;;14.00;68.60;;;12.55;68.73;100456.50;8195177;28;20077;-84
2022/01/02 15:07:14;;;;;;;1.75;1.65;;;14.00;68.70;;;12.70;68.70;100454.63;8207922;28;20043;-84
2022/01/02 15:11:35;;;;;;;2.63;1.83;;;14.00;68.60;;;12.67;68.65;100449.59;8196016;28;20035;-86
2022/01/02 15:15:57;;;;;;;1.63;1.52;;;14.00;68.60;;;12.60;68.79;100450.00;8200818;28;20038;-86
2022/01/02 15:20:19;;;;;;;2.35;2.08;;;14.00;68.60;;;12.61;68.71;100470.03;8196389;28;20044;-86
2022/01/02 15:24:41;;;;;;;3.65;2.45;;;14.00;68.60;;;12.66;68.57;100476.72;8192894;28;20043;-85
2022/01/02 15:29:03;;;;;;;2.50;2.30;;;14.00;68.60;;;12.68;68.50;100478.28;8233187;28;20042;-86
2022/01/02 15:33:24;;;;;;;2.25;1.90;;;14.00;68.50;;;12.67;68.86;100471.38;8221192;28;20425;-86
2022/01/02 15:37:50;;;;;;;2.85;2.20;;;14.00;68.50;;;12.54;68.49;100454.84;8207926;28;20408;-86
2022/01/02 15:42:11;;;;;;;2.50;2.13;;;14.00;68.50;;;12.58;68.70;100470.25;8193843;28;20050;-86
2022/01/02 15:46:33;;;;;;;2.20;1.98;;;14.00;68.30;;;12.47;68.44;100454.38;8205368;28;20049;-86
2022/01/02 15:50:56;;;;;;;2.00;1.83;;;14.10;68.30;;;12.60;68.57;100476.19;8206826;28;20040;-85
2022/01/02 15:55:17;;;;;;;3.35;2.80;;;14.00;68.20;;;12.47;68.38;100454.38;8221665;28;20046;-86
2022/01/02 15:59:39;;;;;;;7.25;4.15;;;14.00;68.10;;;12.59;68.52;100484.16;8195787;28;20042;-86
2022/01/02 16:04:01;;;;;;;5.63;3.03;;;13.90;68.00;;;12.56;68.68;100476.53;8206747;28;20050;-86
2022/01/02 16:08:23;;;;;;;2.97;2.67;;;13.90;67.80;;;12.53;68.65;100474.94;8222384;28;20039;-87
2022/01/02 16:12:45;;;;;;;5.18;2.90;;;13.90;67.80;;;12.44;68.62;100465.06;8207563;28;20038;-87
2022/01/02 16:17:07;;;;;;;2.83;2.40;;;13.90;67.70;;;12.39;68.42;100461.91;8203148;28;20139;-87
2022/01/02 16:21:29;;;;;;;2.50;2.03;;;13.90;67.70;;;12.44;68.63;100475.53;8187445;28;20415;-86
2022/01/02 16:25:50;;;;;;;2.15;1.95;;;13.80;67.50;;;12.44;68.63;100493.06;8208621;28;20069;-86
2022/01/02 16:30:13;;;;;;;1.88;1.75;;;13.80;67.70;;;12.40;68.52;100492.44;8230692;28;20046;-86
2022/01/02 16:34:34;;;;;;;3.58;2.28;;;13.80;67.70;;;12.35;68.65;100477.00;8226152;28;20039;-86
2022/01/02 16:38:56;;;;;;;2.97;2.03;;;13.80;67.70;;;12.39;68.55;100485.50;8192190;28;20031;-86
2022/01/02 16:43:18;;;;;;;2.40;1.98;;;13.70;67.70;;;12.44;68.50;100485.19;8232634;28;20118;-86
2022/01/02 16:47:40;;;;;;;2.75;2.30;;;13.80;67.70;;;12.40;68.47;100474.09;8232204;28;20066;-86
2022/01/02 16:52:02;;;;;;;2.42;2.13;;;13.80;67.70;;;12.34;68.58;100464.00;8208112;28;20042;-85
2022/01/02 16:56:25;;;;;;;4.60;2.47;;;13.80;67.70;;;12.49;68.64;100477.88;8235080;28;20034;-85
2022/01/02 17:00:47;;;;;;;4.63;2.30;;;13.80;67.60;;;12.46;68.62;100478.91;8215830;28;20039;-85
2022/01/02 17:05:08;;;;;;;3.42;2.60;;;13.80;67.50;;;12.36;68.53;100447.25;8213546;28;20058;-86
2022/01/02 17:09:30;;;;;;;2.78;2.55;;;13.90;67.70;;;12.52;68.50;100465.41;8216705;28;20500;-85
2022/01/02 17:13:52;;;;;;;2.35;2.15;;;13.80;67.50;;;12.45;68.55;100455.44;8226317;28;20042;-85
2022/01/02 17:18:15;;;;;;;2.10;1.90;;;13.90;67.50;;;12.49;68.47;100444.66;8207166;28;20038;-85
2022/01/02 17:22:38;;;;;;;4.85;2.40;;;13.90;67.50;;;12.52;68.52;100447.06;8221767;28;20031;-86
2022/01/02 17:27:00;;;;;;;3.40;1.83;;;13.90;67.40;;;12.60;68.38;100449.16;8195019;28;20056;-86
2022/01/02 17:31:22;;;;;;;4.60;2.47;;;14.00;67.30;;;12.65;68.49;100441.84;8225123;28;20038;-86
2022/01/02 17:35:44;;;;;;;2.70;2.05;;;14.00;67.00;;;12.67;68.44;100439.94;8224309;28;20045;-85
2022/01/02 17:40:09;;;;;;;3.13;2.13;;;14.00;67.00;;;12.62;68.48;100435.03;8197107;28;20045;-85
2022/01/02 17:44:32;;;;;;;2.53;1.80;;;14.10;66.80;;;12.61;68.27;100428.13;8188265;28;20042;-85
2022/01/02 17:48:57;;;;;;;2.00;1.80;;;14.10;66.60;;;12.67;68.40;100429.47;8197149;28;20040;-85
2022/01/02 17:53:18;;;;;;;2.83;1.75;;;14.20;66.50;;;12.68;68.35;100419.81;8208702;28;20049;-86
2022/01/02 17:57:41;;;;;;;2.70;2.05;;;14.10;66.20;;;12.73;68.48;100436.91;8195260;28;20034;-85
2022/01/02 18:02:03;;;;;;;2.92;2.10;;;14.20;66.10;;;12.79;68.25;100438.25;8193637;28;20050;-85
2022/01/02 18:06:25;;;;;;;2.45;2.00;;;14.20;66.10;;;12.84;68.40;100446.66;8208953;28;20038;-84
2022/01/02 18:10:47;;;;;;;2.75;2.22;;;14.20;65.90;;;12.87;68.31;100449.06;8203121;28;20043;-85
2022/01/02 18:15:15;;;;;;;3.13;2.42;;;14.20;65.90;;;12.81;68.09;100424.09;8219039;28;20056;-85
2022/01/02 18:19:19;;;;;;;5.38;1.98;;;14.20;65.20;;;12.91;68.01;100445.28;8231800;28;20031;-85
2022/01/02 18:23:34;;;;;;;2.13;1.98;;;14.20;65.20;;;12.84;68.10;100417.81;8359428;28;20537;-85
2022/01/02 18:27:49;;;;;;;1.73;1.63;;;14.20;65.30;;;12.91;68.17;100439.19;8412403;27;20918;-86
2022/01/02 18:32:05;;;;;;;2.78;1.98;;;14.30;65.20;;;12.93;67.94;100434.69;8405508;27;20990;-87